Cemaes Bay, United Kingdom
Current Conditions -  °F | °C
As of 1:50 PM on Wednesday 28 Jan 2015 (Local Time) from EGOV Reporting Station
Few Clouds Few Clouds  
Wind Chill: -1°   Ceiling: Unl
Heat Index:   Visibility: 6mi
Dew Point: -1°   Wind: 29mph
Humidity: 65%   Direction: 280°W
Pressure: 29.56"   Gusts: NA
Location:  53.41°N, 4.46°W
Report Text: EGOV 281350Z 28025KT 9999 FEW034 05/M01 Q1001 BLU TEMPO 29028G38KT 5000 SHGS SCT022 WHT
Loading
Personal Weather Stations






























Interactive Weather Map New forecast layout! Learn more

10-Day Weather Forecast

Advertisements
Track Severe Weather on mobile